^^
Datos históricos de la estación: Murcia-Puente Tocinos
Diario Informe para Mayo 17, 2022 Unidades:  Métrico    Ingés   Ambas
Diario Semanal Mensual Anual
  Máxima: Mínima: Promedio:
Temperatura: 31.7 °C 19.3 °C 24.8 °C
Punto de rocio: 18.1 °C 14.6 °C 15.7 °C
Humedad: 77.9% 40.1% 59%
Velocidad viento: 14km/h 0km/h 6.2km/h
Racha viento: 25.9km/h - -
Viento- - SE
Presión: 1018.5 hPa 1015.2 hPa -
Precipitación: 0.0 mm    
 
 
Tabla de datos para Mayo 17, 2022
Hora Temperatura Punto de rocio Presión Viento Velocidad viento Racha viento Humedad Intensidad lluvia(por hora) Nubes
00:04 21.4 °C 16 °C 1018.2 hPa NE 6.4 km/h 11.1 km/h 71.4% 0.0 mm
00:09 21.4 °C 16.1 °C 1018.2 hPa NE 6.4 km/h 11.1 km/h 72% 0.0 mm
00:14 21.3 °C 16.3 °C 1018.2 hPa NE 6.4 km/h 8.4 km/h 72.9% 0.0 mm
00:19 21.3 °C 16.3 °C 1018.2 hPa NNE 6.4 km/h 7.6 km/h 73.1% 0.0 mm
00:24 21.2 °C 16.4 °C 1018.1 hPa NNE 5.2 km/h 7.4 km/h 74% 0.0 mm
00:29 21.2 °C 16.5 °C 1018.1 hPa NE 5 km/h 7.4 km/h 74.5% 0.0 mm
00:34 21.1 °C 16.5 °C 1018.1 hPa NNE 4 km/h 7.6 km/h 75% 0.0 mm
00:39 21.1 °C 16.6 °C 1018.1 hPa NNE 3.9 km/h 5.6 km/h 75.4% 0.0 mm
00:44 21.1 °C 16.7 °C 1018.1 hPa NNE 3.3 km/h 6.4 km/h 76% 0.0 mm
00:49 21.1 °C 16.8 °C 1018.2 hPa NNE 3.2 km/h 7.4 km/h 76.4% 0.0 mm
00:54 21 °C 16.8 °C 1018.2 hPa NNE 3.2 km/h 7.4 km/h 77% 0.0 mm
00:59 21 °C 16.9 °C 1018.2 hPa NNE 3.2 km/h 5.8 km/h 77.3% 0.0 mm
01:04 21 °C 17 °C 1018.2 hPa North 3.8 km/h 5.6 km/h 77.9% 0.0 mm
01:09 21 °C 16.8 °C 1018.2 hPa North 3.9 km/h 4.7 km/h 77% 0.0 mm
01:14 21 °C 16.8 °C 1018.2 hPa North 2.5 km/h 5.6 km/h 77% 0.0 mm
01:19 21 °C 16.8 °C 1018.2 hPa North 2.3 km/h 4.7 km/h 77% 0.0 mm
01:24 21 °C 16.8 °C 1018.2 hPa NNE 2.8 km/h 4.7 km/h 77% 0.0 mm
01:29 21 °C 16.8 °C 1018.2 hPa NNE 2.9 km/h 5 km/h 76.7% 0.0 mm
01:34 20.9 °C 16.4 °C 1018.2 hPa NE 2.9 km/h 5.6 km/h 75.6% 0.0 mm
01:39 20.8 °C 16.2 °C 1018.1 hPa NE 2.9 km/h 3.9 km/h 74.8% 0.0 mm
01:44 20.8 °C 16 °C 1018.1 hPa NE 2.3 km/h   74% 0.0 mm
01:49 20.8 °C 16 °C 1018.2 hPa NE 2.3 km/h 2.3 km/h 74% 0.0 mm
01:54 20.8 °C 16 °C 1018.2 hPa NE 0.4 km/h 3.9 km/h 74% 0.0 mm
01:59 20.8 °C 16.1 °C 1018.2 hPa Calm   3.7 km/h 74.4% 0.0 mm
02:04 20.9 °C 16.3 °C 1018.2 hPa Calm   4.7 km/h 75% 0.0 mm
02:09 20.9 °C 16.3 °C 1018.2 hPa Calm   3.7 km/h 75% 0.0 mm
02:14 20.9 °C 16.3 °C 1018.2 hPa NO 2 km/h 3.7 km/h 75% 0.0 mm
02:19 20.9 °C 16.3 °C 1018.2 hPa NO 2.3 km/h 3.7 km/h 75% 0.0 mm
02:24 20.9 °C 16.2 °C 1018.1 hPa NO 0.2 km/h 5 km/h 74.3% 0.0 mm
02:29 20.9 °C 15.8 °C 1018.1 hPa Calm   5.6 km/h 72.7% 0.0 mm
02:34 20.8 °C 15.5 °C 1018.1 hPa SSE 2.6 km/h 9.5 km/h 71.5% 0.0 mm
02:39 20.8 °C 15.3 °C 1018.0 hPa SSE 2.9 km/h 9.3 km/h 71% 0.0 mm
02:44 20.8 °C 15.3 °C 1018.0 hPa SSO 4.7 km/h 7.4 km/h 71% 0.0 mm
02:49 20.8 °C 15.3 °C 1018.0 hPa SSO 5 km/h 6.4 km/h 71.1% 0.0 mm
02:54 20.8 °C 15.6 °C 1018.0 hPa SSO 4 km/h 7.4 km/h 72% 0.0 mm
02:59 20.9 °C 15.7 °C 1018.0 hPa SSO 3.9 km/h 4.7 km/h 72% 0.0 mm
03:04 20.9 °C 15.6 °C 1017.9 hPa SSO 2.4 km/h 5.8 km/h 71.8% 0.0 mm
03:09 21 °C 15.5 °C 1017.9 hPa SSO 2.3 km/h 5.6 km/h 71% 0.0 mm
03:14 20.9 °C 15.3 °C 1017.9 hPa Sur 2.8 km/h 4.7 km/h 70.3% 0.0 mm
03:19 20.8 °C 15.3 °C 1017.9 hPa SSO 2.9 km/h 3.9 km/h 70.7% 0.0 mm
03:24 20.7 °C 15.2 °C 1017.7 hPa Oeste 2.3 km/h 5.8 km/h 71% 0.0 mm
03:29 20.4 °C 15.1 °C 1017.7 hPa NO 2.3 km/h 4.7 km/h 71.5% 0.0 mm
03:34 20.2 °C 15.1 °C 1017.7 hPa NO 2.8 km/h 4.7 km/h 72.3% 0.0 mm
03:39 20.2 °C 15.2 °C 1017.6 hPa NO 2.9 km/h 4.7 km/h 73% 0.0 mm
03:44 20.1 °C 15.1 °C 1017.6 hPa NO 2.3 km/h 3.9 km/h 73% 0.0 mm
03:49 20.1 °C 15.2 °C 1017.6 hPa NO 2.3 km/h 3.7 km/h 73.5% 0.0 mm
03:54 20.1 °C 15.3 °C 1017.5 hPa NO 2.3 km/h 3.7 km/h 74.2% 0.0 mm
03:59 20 °C 15.5 °C 1017.5 hPa NO 2.3 km/h 3.7 km/h 75% 0.0 mm
04:04 19.9 °C 15.4 °C 1017.3 hPa NO 0.2 km/h   75% 0.0 mm
04:09 19.9 °C 15.3 °C 1017.3 hPa Calm   3.7 km/h 75% 0.0 mm
04:14 19.8 °C 15.1 °C 1017.3 hPa Calm   7.4 km/h 74.2% 0.0 mm
04:19 19.8 °C 14.9 °C 1017.4 hPa Calm   4.7 km/h 73.5% 0.0 mm
04:24 19.8 °C 14.8 °C 1017.4 hPa ESE 1.9 km/h 3.7 km/h 73% 0.0 mm
04:29 19.8 °C 15 °C 1017.4 hPa ESE 2.3 km/h 3.7 km/h 73.9% 0.0 mm
04:34 19.8 °C 15.1 °C 1017.4 hPa ESE 0.2 km/h 3.7 km/h 74.4% 0.0 mm
04:39 19.8 °C 15.2 °C 1017.4 hPa Calm   6.4 km/h 75% 0.0 mm
04:44 19.9 °C 15.3 °C 1017.4 hPa Sur 2.7 km/h 7.6 km/h 75% 0.0 mm
04:49 19.9 °C 15.3 °C 1017.4 hPa SSO 2.9 km/h 7.6 km/h 74.7% 0.0 mm
04:54 19.9 °C 15.1 °C 1017.3 hPa SSE 3.8 km/h 9.5 km/h 73.7% 0.0 mm
04:59 20 °C 15 °C 1017.3 hPa ESE 3.9 km/h 7.4 km/h 72.9% 0.0 mm
05:04 19.8 °C 14.7 °C 1017.3 hPa SE 4.6 km/h 9.3 km/h 72% 0.0 mm
05:09 19.7 °C 14.8 °C 1017.3 hPa SSE 4.7 km/h 9.5 km/h 73.3% 0.0 mm
05:14 19.5 °C 14.9 °C 1017.3 hPa Sur 5.7 km/h 9.5 km/h 74.8% 0.0 mm
05:19 19.4 °C 15 °C 1017.4 hPa Sur 5.8 km/h 9.3 km/h 75.8% 0.0 mm
05:24 19.4 °C 15.1 °C 1017.4 hPa SSO 5.8 km/h 11.1 km/h 76% 0.0 mm
05:29 19.5 °C 15.1 °C 1017.4 hPa SO 5.8 km/h 9.5 km/h 76% 0.0 mm
05:34 19.6 °C 15.3 °C 1017.4 hPa SO 6.4 km/h 9.3 km/h 76% 0.0 mm
05:39 19.7 °C 15.3 °C 1017.3 hPa SO 6.4 km/h 10 km/h 76% 0.0 mm
05:44 19.7 °C 15.3 °C 1017.3 hPa OSO 5.8 km/h 11.1 km/h 76% 0.0 mm
05:49 19.7 °C 15.3 °C 1017.3 hPa SO 5.8 km/h 10 km/h 76% 0.0 mm
05:54 19.7 °C 15.3 °C 1017.3 hPa SO 6.4 km/h 9.3 km/h 76% 0.0 mm
05:59 19.6 °C 15.3 °C 1017.3 hPa SO 6.4 km/h 11.1 km/h 76% 0.0 mm
06:04 19.6 °C 15.3 °C 1017.5 hPa SO 5.8 km/h 9.3 km/h 76% 0.0 mm
06:09 19.6 °C 15.3 °C 1017.5 hPa SO 5.8 km/h 11.1 km/h 76% 0.0 mm
06:14 19.6 °C 15.2 °C 1017.5 hPa SO 5.8 km/h 10.3 km/h 75.8% 0.0 mm
06:19 19.6 °C 15.1 °C 1017.5 hPa SSO 5.8 km/h 11.1 km/h 75% 0.0 mm
06:24 19.6 °C 15.1 °C 1017.4 hPa SO 5.8 km/h 9.5 km/h 75% 0.0 mm
06:29 19.6 °C 15.1 °C 1017.4 hPa SO 5.8 km/h 9.3 km/h 75% 0.0 mm
06:34 19.7 °C 15.1 °C 1017.6 hPa OSO 4.8 km/h 7.4 km/h 75% 0.0 mm
06:39 19.7 °C 15.2 °C 1017.6 hPa SSO 4.7 km/h 7.4 km/h 75% 0.0 mm
06:44 19.6 °C 15.1 °C 1017.6 hPa SSO 4.7 km/h 8.4 km/h 75% 0.0 mm
06:49 19.6 °C 15 °C 1017.6 hPa SSO 4.7 km/h 7.4 km/h 75% 0.0 mm
06:54 19.5 °C 15 °C 1017.6 hPa SO 4.7 km/h 7.4 km/h 75% 0.0 mm
06:59 19.4 °C 14.9 °C 1017.6 hPa SO 4.7 km/h 8.4 km/h 75% 0.0 mm
07:04 19.4 °C 14.8 °C 1017.7 hPa SO 5 km/h 10 km/h 75% 0.0 mm
07:09 19.4 °C 14.8 °C 1017.7 hPa OSO 5 km/h 8.4 km/h 75% 0.0 mm
07:14 19.4 °C 14.8 °C 1017.7 hPa OSO 5.7 km/h 9.5 km/h 75% 0.0 mm
07:19 19.4 °C 14.8 °C 1017.8 hPa SO 5.8 km/h 9.5 km/h 75% 0.0 mm
07:24 19.4 °C 14.8 °C 1017.8 hPa SO 5.1 km/h 9.5 km/h 75% 0.0 mm
07:29 19.4 °C 14.8 °C 1017.8 hPa SO 5 km/h 8.4 km/h 75% 0.0 mm
07:34 19.5 °C 14.9 °C 1017.9 hPa SO 5 km/h 9.3 km/h 75% 0.0 mm
07:39 19.6 °C 15 °C 1017.9 hPa SSO 5 km/h 8.7 km/h 74.8% 0.0 mm
07:44 19.6 °C 14.8 °C 1017.9 hPa SSE 5 km/h 9.3 km/h 74% 0.0 mm
07:49 19.6 °C 14.8 °C 1018.0 hPa SSE 5 km/h 10 km/h 74% 0.0 mm
07:54 19.6 °C 14.9 °C 1018.0 hPa SSE 6.7 km/h 11.1 km/h 74.4% 0.0 mm
07:59 19.4 °C 14.9 °C 1018.0 hPa SSE 6.9 km/h 11.9 km/h 75% 0.0 mm
08:04 19.3 °C 14.9 °C 1018.0 hPa SSE 7.5 km/h 11.1 km/h 75.7% 0.0 mm
08:09 19.3 °C 15 °C 1018.0 hPa SSE 7.6 km/h 10 km/h 76% 0.0 mm
08:14 19.4 °C 15 °C 1018.0 hPa SSE 7 km/h 9.5 km/h 76% 0.0 mm
08:19 19.5 °C 15.1 °C 1018.0 hPa SSO 6.9 km/h 8.4 km/h 76% 0.0 mm
08:24 19.7 °C 15.2 °C 1018.0 hPa SSO 5.9 km/h 7.4 km/h 75.4% 0.0 mm
08:29 19.8 °C 15.3 °C 1018.0 hPa SSO 5.8 km/h 8.7 km/h 74.9% 0.0 mm
08:34 20.1 °C 15.1 °C 1018.0 hPa SO 4.1 km/h 9.3 km/h 72.9% 0.0 mm
08:39 20.3 °C 15 °C 1018.0 hPa Oeste 3.9 km/h 9.3 km/h 71.3% 0.0 mm
08:44 20.6 °C 15 °C 1018.0 hPa Oeste 4.9 km/h 9.3 km/h 70% 0.0 mm
08:49 20.8 °C 15 °C 1018.0 hPa Oeste 5 km/h 10 km/h 69.6% 0.0 mm
08:54 20.8 °C 14.8 °C 1018.0 hPa OSO 5 km/h 10 km/h 68.2% 0.0 mm
08:59 20.9 °C 14.8 °C 1018.0 hPa OSO 5 km/h 7.6 km/h 68% 0.0 mm
09:04 21.1 °C 14.9 °C 1018.1 hPa Oeste 4.7 km/h 7.4 km/h 68% 0.0 mm
09:09 21.2 °C 15 °C 1018.1 hPa Oeste 4.7 km/h 10 km/h 67.4% 0.0 mm
09:14 21.3 °C 15 °C 1018.1 hPa Oeste 4.7 km/h 9.5 km/h 66.9% 0.0 mm
09:19 21.5 °C 14.9 °C 1018.3 hPa ONO 4.7 km/h 7.4 km/h 66% 0.0 mm
09:24 21.7 °C 15.1 °C 1018.3 hPa Oeste 4.7 km/h 9.5 km/h 66.1% 0.0 mm
09:29 21.8 °C 15 °C 1018.3 hPa OSO 4.7 km/h 9.5 km/h 65.1% 0.0 mm
09:34 21.9 °C 15 °C 1018.4 hPa SO 5.7 km/h 7.6 km/h 64.9% 0.0 mm
09:39 22.2 °C 15 °C 1018.4 hPa SSO 5.8 km/h 9.3 km/h 63.8% 0.0 mm
09:44 22.5 °C 15 °C 1018.4 hPa SO 4.9 km/h 9.3 km/h 62.7% 0.0 mm
09:49 22.7 °C 15 °C 1018.4 hPa SO 4.7 km/h 8.4 km/h 62% 0.0 mm
09:54 22.8 °C 15.1 °C 1018.3 hPa SO 4 km/h 7.6 km/h 61.5% 0.0 mm
09:59 23.1 °C 15.1 °C 1018.3 hPa SSO 3.9 km/h 6.9 km/h 60.9% 0.0 mm
10:04 23.4 °C 15.1 °C 1018.4 hPa SO 3.3 km/h 8.4 km/h 59.6% 0.0 mm
10:09 23.7 °C 15.2 °C 1018.4 hPa SSE 3.2 km/h 7.4 km/h 59% 0.0 mm
10:14 24 °C 15.3 °C 1018.4 hPa Sur 3.3 km/h 7.6 km/h 58.1% 0.0 mm
10:19 24.3 °C 15.3 °C 1018.4 hPa SSE 3.9 km/h 4.7 km/h 57.2% 0.0 mm
10:24 24.7 °C 15.4 °C 1018.4 hPa Este 3.1 km/h 7.6 km/h 56.3% 0.0 mm
10:29 25.1 °C 14.9 °C 1018.4 hPa Oeste 2.9 km/h 9.3 km/h 53.5% 0.0 mm
10:34 25 °C 15 °C 1018.5 hPa ONO 4 km/h 7.6 km/h 53.7% 0.0 mm
10:39 25.1 °C 15.1 °C 1018.5 hPa ONO 4.7 km/h 9.3 km/h 54% 0.0 mm
10:44 25.2 °C 15.2 °C 1018.5 hPa NNO 3.5 km/h 4.7 km/h 54% 0.0 mm
10:49 25.6 °C 15.2 °C 1018.5 hPa NO 3.2 km/h 7.4 km/h 52.7% 0.0 mm
10:54 25.8 °C 15.1 °C 1018.3 hPa Oeste 3.1 km/h 7.4 km/h 51.5% 0.0 mm
10:59 25.9 °C 15.2 °C 1018.3 hPa OSO 2.9 km/h 7.4 km/h 51.5% 0.0 mm
11:04 26.1 °C 15.3 °C 1018.4 hPa Oeste 2.9 km/h 5.8 km/h 51.4% 0.0 mm
11:09 26.2 °C 15.3 °C 1018.4 hPa ONO 3.1 km/h 7.4 km/h 51% 0.0 mm
11:14 26.2 °C 15.3 °C 1018.4 hPa NO 3.9 km/h 7.4 km/h 50.8% 0.0 mm
11:19 26.4 °C 15.2 °C 1018.4 hPa SSO 3.9 km/h 6.9 km/h 50% 0.0 mm
11:24 26.9 °C 15.4 °C 1018.3 hPa Este 3.3 km/h 7.4 km/h 49.5% 0.0 mm
11:29 27.3 °C 15.5 °C 1018.3 hPa NE 3.2 km/h 9.3 km/h 48.6% 0.0 mm
11:34 27.4 °C 15.2 °C 1018.3 hPa NE 3.7 km/h 8.4 km/h 47.4% 0.0 mm
11:39 27.5 °C 15.2 °C 1018.3 hPa North 3.9 km/h 4.7 km/h 47% 0.0 mm
11:44 27.8 °C 15.4 °C 1018.3 hPa NE 3.4 km/h 9.5 km/h 46.7% 0.0 mm
11:49 27.9 °C 15.3 °C 1018.3 hPa NE 3.2 km/h 9.3 km/h 46.2% 0.0 mm
11:54 27.9 °C 15.2 °C 1018.3 hPa NE 4.5 km/h 7.4 km/h 46% 0.0 mm
11:59 28.2 °C 15.4 °C 1018.3 hPa Este 4.7 km/h 7.4 km/h 46% 0.0 mm
12:04 28.4 °C 15.3 °C 1018.2 hPa NE 3 km/h 13.7 km/h 45.1% 0.0 mm
12:09 28.3 °C 15.4 °C 1018.2 hPa North 2.9 km/h 13 km/h 45.4% 0.0 mm
12:14 28.2 °C 15.5 °C 1018.2 hPa NO 5.5 km/h 7.4 km/h 46% 0.0 mm
12:19 28.3 °C 15.5 °C 1018.2 hPa North 5.8 km/h 11.1 km/h 45.7% 0.0 mm
12:24 28.3 °C 15.4 °C 1018.2 hPa North 4.8 km/h 10 km/h 45.6% 0.0 mm
12:29 28.3 °C 15.5 °C 1018.2 hPa NNE 4.7 km/h 11.1 km/h 46% 0.0 mm
12:34 28.2 °C 15.5 °C 1018.2 hPa ENE 5.5 km/h 13 km/h 46% 0.0 mm
12:39 28.2 °C 15.5 °C 1018.2 hPa ESE 5.8 km/h 7.6 km/h 46% 0.0 mm
12:44 28.3 °C 15.5 °C 1018.2 hPa NE 5.8 km/h 7.4 km/h 46% 0.0 mm
12:49 28.6 °C 15.7 °C 1018.2 hPa NE 5.6 km/h 10 km/h 45.7% 0.0 mm
12:54 28.7 °C 15.5 °C 1018.0 hPa NNE 5.1 km/h 11.1 km/h 45% 0.0 mm
12:59 28.6 °C 15.5 °C 1018.0 hPa ENE 5.8 km/h 14.8 km/h 45% 0.0 mm
13:04 28.6 °C 15.5 °C 1018.0 hPa ESE 6.7 km/h 11.1 km/h 44.9% 0.0 mm
13:09 28.7 °C 15.3 °C 1018.0 hPa ENE 6.9 km/h 14.8 km/h 44.2% 0.0 mm
13:14 28.8 °C 15.6 °C 1018.0 hPa NNE 6.9 km/h 11.1 km/h 45% 0.0 mm
13:19 28.8 °C 15.5 °C 1018.0 hPa NE 6.9 km/h 8.4 km/h 44.3% 0.0 mm
13:24 29 °C 15.6 °C 1017.9 hPa NNE 5.2 km/h 7.4 km/h 44% 0.0 mm
13:29 29.5 °C 15.5 °C 1017.9 hPa ESE 5 km/h 8.7 km/h 42.8% 0.0 mm
13:34 29.8 °C 15.8 °C 1017.9 hPa NO 4 km/h 9.5 km/h 43% 0.0 mm
13:39 29.8 °C 15.9 °C 1017.7 hPa NNO 3.9 km/h 9.5 km/h 43.1% 0.0 mm
13:44 30.1 °C 16.1 °C 1017.7 hPa NNE 4.6 km/h 11.1 km/h 43% 0.0 mm
13:49 30.1 °C 15.7 °C 1017.7 hPa NE 4.7 km/h 13 km/h 41.9% 0.0 mm
13:54 30 °C 15.7 °C 1017.5 hPa NNO 5.6 km/h 8.4 km/h 41.9% 0.0 mm
13:59 30.2 °C 15.7 °C 1017.5 hPa ESE 5.8 km/h 13.7 km/h 41.5% 0.0 mm
14:04 30.3 °C 15.2 °C 1017.4 hPa SE 5 km/h 13 km/h 40.2% 0.0 mm
14:09 30.2 °C 15.7 °C 1017.4 hPa NE 5 km/h 7.6 km/h 41.4% 0.0 mm
14:14 30.4 °C 15.9 °C 1017.4 hPa NE 4.7 km/h 10.3 km/h 41.6% 0.0 mm
14:19 30.7 °C 15.6 °C 1017.4 hPa NE 4.7 km/h 13 km/h 40.1% 0.0 mm
14:24 30.7 °C 15.8 °C 1017.2 hPa NE 5.7 km/h 13 km/h 40.6% 0.0 mm
14:29 30.6 °C 15.9 °C 1017.2 hPa NNO 5.8 km/h 11.1 km/h 41% 0.0 mm
14:34 30.8 °C 16.1 °C 1017.2 hPa North 4.8 km/h 15.6 km/h 41.1% 0.0 mm
14:39 30.9 °C 15.9 °C 1017.0 hPa ENE 4.7 km/h 14.8 km/h 40.4% 0.0 mm
14:44 30.8 °C 16.1 °C 1017.0 hPa NE 6.2 km/h 13.7 km/h 41.1% 0.0 mm
14:49 30.9 °C 15.9 °C 1017.0 hPa NNE 6.4 km/h 13 km/h 40.5% 0.0 mm
14:54 30.8 °C 15.9 °C 1016.9 hPa North 6.4 km/h 13.7 km/h 40.6% 0.0 mm
14:59 30.8 °C 16.1 °C 1016.9 hPa NNE 6.4 km/h 13 km/h 41.2% 0.0 mm
15:04 31 °C 16.5 °C 1016.7 hPa NNE 6.4 km/h 11.9 km/h 41.8% 0.0 mm
15:09 31.3 °C 16.6 °C 1016.7 hPa NO 6.4 km/h 11.9 km/h 41.4% 0.0 mm
15:14 31.5 °C 17.8 °C 1016.7 hPa ESE 5.2 km/h 16.7 km/h 43.9% 0.0 mm
15:19 31.4 °C 18.1 °C 1016.7 hPa NE 5 km/h 11.1 km/h 45.1% 0.0 mm
15:24 31.5 °C 18.1 °C 1016.5 hPa ESE 6.2 km/h 16.7 km/h 45.1% 0.0 mm
15:29 31.3 °C 17.9 °C 1016.5 hPa ENE 6.4 km/h 14.8 km/h 44.8% 0.0 mm
15:34 31.2 °C 18.1 °C 1016.5 hPa ESE 6.9 km/h 16.1 km/h 45.6% 0.0 mm
15:39 31.3 °C 18.1 °C 1016.4 hPa SE 6.9 km/h 16.7 km/h 45.4% 0.0 mm
15:44 31.2 °C 18 °C 1016.4 hPa ESE 8.2 km/h 19 km/h 45.5% 0.0 mm
15:49 30.9 °C 18 °C 1016.4 hPa ESE 8.4 km/h 18.5 km/h 46% 0.0 mm
15:54 31 °C 17.9 °C 1016.3 hPa ESE 9.4 km/h 18.5 km/h 45.8% 0.0 mm
15:59 31.2 °C 18 °C 1016.3 hPa ESE 9.5 km/h 14.8 km/h 45.5% 0.0 mm
16:04 31.4 °C 17.9 °C 1016.0 hPa ESE 8.8 km/h 15.6 km/h 44.6% 0.0 mm
16:09 31.4 °C 17.6 °C 1016.0 hPa Este 8.7 km/h 22.2 km/h 43.6% 0.0 mm
16:14 31.5 °C 17.7 °C 1016.0 hPa Este 9.9 km/h 17.2 km/h 43.7% 0.0 mm
16:19 31.5 °C 17.4 °C 1016.0 hPa ESE 10 km/h 15.6 km/h 43% 0.0 mm
16:24 31.7 °C 17.3 °C 1015.8 hPa ESE 8.9 km/h 18.5 km/h 42.3% 0.0 mm
16:29 31.7 °C 17.2 °C 1015.8 hPa Este 8.7 km/h 24.1 km/h 42% 0.0 mm
16:34 31.7 °C 17.2 °C 1015.8 hPa ESE 9.4 km/h 17.2 km/h 42% 0.0 mm
16:39 31.6 °C 17 °C 1015.7 hPa ESE 9.5 km/h 14.8 km/h 41.7% 0.0 mm
16:44 31.7 °C 16.9 °C 1015.7 hPa ESE 8.5 km/h 18.5 km/h 41.4% 0.0 mm
16:49 31.7 °C 16.9 °C 1015.7 hPa ESE 8.4 km/h 20.9 km/h 41.2% 0.0 mm
16:54 31.5 °C 16.7 °C 1015.7 hPa ESE 10.1 km/h 22.2 km/h 41% 0.0 mm
16:59 31.4 °C 16.7 °C 1015.7 hPa ESE 10.3 km/h 20.9 km/h 41.3% 0.0 mm
17:04 31.3 °C 16.7 °C 1015.4 hPa ESE 11.8 km/h 22.2 km/h 41.7% 0.0 mm
17:09 31.3 °C 16.8 °C 1015.4 hPa ESE 11.9 km/h 20.4 km/h 42% 0.0 mm
17:14 31.3 °C 16.6 °C 1015.4 hPa SE 11.2 km/h 20.1 km/h 41.4% 0.0 mm
17:19 31.4 °C 16.6 °C 1015.4 hPa ESE 11.1 km/h 20.9 km/h 41% 0.0 mm
17:24 31.4 °C 16.7 °C 1015.4 hPa ESE 10.4 km/h 20.1 km/h 41.3% 0.0 mm
17:29 31.3 °C 16.9 °C 1015.4 hPa ESE 10.3 km/h 20.4 km/h 41.9% 0.0 mm
17:34 31.3 °C 16.9 °C 1015.4 hPa ESE 10 km/h 22.5 km/h 42% 0.0 mm
17:39 31.2 °C 16.7 °C 1015.3 hPa ESE 10 km/h 22.2 km/h 41.6% 0.0 mm
17:44 31.1 °C 16.6 °C 1015.3 hPa SE 11.7 km/h 18.5 km/h 41.9% 0.0 mm
17:49 30.9 °C 16.5 °C 1015.3 hPa ESE 11.9 km/h 20.4 km/h 42% 0.0 mm
17:54 30.9 °C 16.5 °C 1015.2 hPa ESE 12.2 km/h 16.7 km/h 42.1% 0.0 mm
17:59 31.1 °C 16.7 °C 1015.2 hPa ESE 12.2 km/h 17.2 km/h 42% 0.0 mm
18:04 31 °C 16.5 °C 1015.2 hPa ESE 10 km/h 20.4 km/h 41.8% 0.0 mm
18:09 30.8 °C 16.7 °C 1015.2 hPa ESE 10 km/h 19 km/h 42.6% 0.0 mm
18:14 30.8 °C 16.5 °C 1015.2 hPa ESE 10.3 km/h 20.4 km/h 42.1% 0.0 mm
18:19 30.9 °C 16.5 °C 1015.2 hPa ESE 10.3 km/h 24.1 km/h 42% 0.0 mm
18:24 30.7 °C 16.3 °C 1015.2 hPa ESE 11.8 km/h 22.2 km/h 42% 0.0 mm
18:29 30.6 °C 16.2 °C 1015.2 hPa Este 11.9 km/h 22.2 km/h 42% 0.0 mm
18:34 30.6 °C 16.2 °C 1015.2 hPa Este 11.9 km/h 18.5 km/h 42% 0.0 mm
18:39 30.6 °C 16.3 °C 1015.2 hPa ESE 11.9 km/h 22.2 km/h 42.1% 0.0 mm
18:44 30.5 °C 16.2 °C 1015.2 hPa ESE 10.5 km/h 18.5 km/h 42% 0.0 mm
18:49 30.3 °C 16 °C 1015.2 hPa ESE 10.3 km/h 18 km/h 42.1% 0.0 mm
18:54 30.3 °C 16.1 °C 1015.2 hPa ESE 9.6 km/h 20.4 km/h 42.4% 0.0 mm
18:59 30.3 °C 16.1 °C 1015.2 hPa ESE 9.5 km/h 20.4 km/h 42.4% 0.0 mm
19:04 30.2 °C 16.2 °C 1015.2 hPa ESE 11.8 km/h 18.5 km/h 42.9% 0.0 mm
19:09 30.2 °C 16.2 °C 1015.2 hPa ESE 11.9 km/h 19 km/h 43% 0.0 mm
19:14 30.1 °C 16.1 °C 1015.2 hPa ESE 10.5 km/h 19 km/h 42.9% 0.0 mm
19:19 30 °C 16 °C 1015.2 hPa ESE 10.3 km/h 18.5 km/h 43% 0.0 mm
19:24 30 °C 16 °C 1015.2 hPa ESE 10.3 km/h 18.5 km/h 43% 0.0 mm
19:29 29.8 °C 15.9 °C 1015.2 hPa ESE 10.3 km/h 18.5 km/h 43% 0.0 mm
19:34 29.7 °C 16 °C 1015.2 hPa ESE 10 km/h 13 km/h 43.4% 0.0 mm
19:39 29.7 °C 15.8 °C 1015.2 hPa ESE 10 km/h 18.5 km/h 43.1% 0.0 mm
19:44 29.6 °C 16 °C 1015.2 hPa ESE 10.3 km/h 17.2 km/h 44% 0.0 mm
19:49 29.4 °C 16 °C 1015.3 hPa ESE 10.3 km/h 18 km/h 44.3% 0.0 mm
19:54 29.3 °C 16.1 °C 1015.3 hPa ESE 10.3 km/h 18.5 km/h 45% 0.0 mm
19:59 29.2 °C 16 °C 1015.3 hPa Este 10.3 km/h 20.4 km/h 45% 0.0 mm
20:04 29 °C 15.8 °C 1015.3 hPa Este 10.3 km/h 16.7 km/h 45% 0.0 mm
20:09 28.8 °C 15.7 °C 1015.3 hPa ESE 10.3 km/h 17.2 km/h 45% 0.0 mm
20:14 28.8 °C 15.8 °C 1015.3 hPa Este 10 km/h 14.8 km/h 45.5% 0.0 mm
20:19 28.7 °C 15.9 °C 1015.4 hPa Este 10 km/h 13 km/h 46% 0.0 mm
20:24 28.5 °C 15.8 °C 1015.4 hPa NE 7.8 km/h 11.1 km/h 46% 0.0 mm
20:29 28.4 °C 15.7 °C 1015.4 hPa NNE 7.6 km/h 15.6 km/h 46.3% 0.0 mm
20:34 28 °C 15.9 °C 1015.7 hPa NNE 7.1 km/h 22.5 km/h 47.9% 0.0 mm
20:39 27.2 °C 15.8 °C 1015.7 hPa NNE 6.9 km/h 20.4 km/h 49.7% 0.0 mm
20:44 26.8 °C 15.8 °C 1015.7 hPa NNE 10.6 km/h 18 km/h 51% 0.0 mm
20:49 26.5 °C 15.7 °C 1015.8 hPa NNE 11.1 km/h 18.5 km/h 51.5% 0.0 mm
20:54 26.2 °C 15.7 °C 1015.8 hPa NNE 10.1 km/h 19 km/h 52.5% 0.0 mm
20:59 25.7 °C 15.7 °C 1015.8 hPa NNE 10 km/h 25.9 km/h 54.1% 0.0 mm
21:04 25.3 °C 15.8 °C 1015.9 hPa NNE 13.4 km/h 18.5 km/h 55.6% 0.0 mm
21:09 25 °C 15.7 °C 1015.9 hPa NNE 13.7 km/h 22.5 km/h 56.4% 0.0 mm
21:14 24.7 °C 15.7 °C 1015.9 hPa NNE 14 km/h 19 km/h 57.4% 0.0 mm
21:19 24.4 °C 15.6 °C 1016.1 hPa NE 14 km/h 24.1 km/h 58% 0.0 mm
21:24 24.2 °C 15.5 °C 1016.1 hPa NNE 12.4 km/h 24.1 km/h 58.6% 0.0 mm
21:29 23.9 °C 15.4 °C 1016.1 hPa NNE 12.2 km/h 20.4 km/h 59% 0.0 mm
21:34 23.8 °C 15.3 °C 1016.3 hPa NNE 12.2 km/h 22.5 km/h 59% 0.0 mm
21:39 23.7 °C 15.3 °C 1016.3 hPa NNE 12.2 km/h 22.2 km/h 59.3% 0.0 mm
21:44 23.6 °C 15.4 °C 1016.3 hPa NNE 12.9 km/h 19 km/h 60% 0.0 mm
21:49 23.4 °C 15.2 °C 1016.4 hPa NNE 13 km/h 19 km/h 60% 0.0 mm
21:54 23.3 °C 15.2 °C 1016.4 hPa NNE 11.4 km/h 20.4 km/h 60.3% 0.0 mm
21:59 23.2 °C 15.2 °C 1016.4 hPa NNE 11.1 km/h 18.5 km/h 60.9% 0.0 mm
22:04 23.1 °C 15.1 °C 1016.7 hPa NNE 11.1 km/h 20.4 km/h 61% 0.0 mm
22:09 22.9 °C 15 °C 1016.7 hPa NNE 11.1 km/h 20.4 km/h 61% 0.0 mm
22:14 22.8 °C 15 °C 1016.7 hPa NNE 12.1 km/h 18.5 km/h 61.5% 0.0 mm
22:19 22.7 °C 15.1 °C 1016.9 hPa NNE 12.2 km/h 18.5 km/h 62% 0.0 mm
22:24 22.7 °C 15 °C 1016.9 hPa NNE 11.2 km/h 19 km/h 62% 0.0 mm
22:29 22.6 °C 14.9 °C 1016.9 hPa NE 11.1 km/h 14.8 km/h 62% 0.0 mm
22:34 22.6 °C 14.9 °C 1017.0 hPa NE 9 km/h 14.8 km/h 62% 0.0 mm
22:39 22.5 °C 14.8 °C 1017.0 hPa NNE 8.7 km/h 11.9 km/h 62% 0.0 mm
22:44 22.4 °C 14.8 °C 1017.0 hPa NNE 6.7 km/h 11.1 km/h 62% 0.0 mm
22:49 22.4 °C 14.8 °C 1017.2 hPa NNE 6.4 km/h 9.3 km/h 62% 0.0 mm
22:54 22.3 °C 14.7 °C 1017.2 hPa NNE 5.9 km/h 9.3 km/h 62% 0.0 mm
22:59 22.3 °C 14.7 °C 1017.2 hPa NNE 5.8 km/h 11.9 km/h 62% 0.0 mm
23:04 22.2 °C 14.6 °C 1017.3 hPa NNE 5.8 km/h 10.3 km/h 62% 0.0 mm
23:09 22.1 °C 14.6 °C 1017.3 hPa NNE 5.8 km/h 14.8 km/h 62.4% 0.0 mm
23:14 22.1 °C 14.8 °C 1017.3 hPa NNE 6.8 km/h 9.3 km/h 63.4% 0.0 mm
23:19 22.1 °C 15 °C 1017.4 hPa NNE 6.9 km/h 11.1 km/h 64.2% 0.0 mm
23:24 22.1 °C 15.3 °C 1017.4 hPa NNE 5.2 km/h 11.1 km/h 65.2% 0.0 mm
23:29 22 °C 15.4 °C 1017.4 hPa NNE 5 km/h 11.1 km/h 66.4% 0.0 mm
23:34 21.9 °C 15.7 °C 1017.4 hPa NE 6.8 km/h 11.9 km/h 67.8% 0.0 mm
23:39 21.9 °C 15.9 °C 1017.3 hPa NNE 6.9 km/h 9.3 km/h 69% 0.0 mm
23:44 21.8 °C 16.1 °C 1017.3 hPa North 5.9 km/h 7.6 km/h 70% 0.0 mm
23:49 21.8 °C 16.2 °C 1017.3 hPa NNE 5.8 km/h 7.6 km/h 70.8% 0.0 mm
Murcia-Puente Tocinos, Espa?a
Compliments of Weather Underground - 3 mb

La estación de MeteoMurcia.com, publica sus datos en los siguientes proyectos:

Weather Underground PWS IMURCIAP2 Meteoclimatic www.awekas.at

W3Counter
Web Analytics